createdAt,value
2023-01-22T00:02:43.113Z,16.23
2023-01-22T00:05:30.468Z,17.90
2023-01-22T00:08:17.917Z,17.70
2023-01-22T00:11:05.588Z,18.63
2023-01-22T00:13:52.999Z,20.53
2023-01-22T00:16:41.711Z,16.47
2023-01-22T00:19:29.122Z,18.13
2023-01-22T00:22:16.591Z,17.97
2023-01-22T00:25:05.384Z,17.30
2023-01-22T00:27:52.853Z,16.47
2023-01-22T00:30:40.671Z,15.67
2023-01-22T00:33:28.768Z,16.97
2023-01-22T00:36:20.520Z,18.63
2023-01-22T00:39:07.935Z,22.50
2023-01-22T00:41:55.903Z,16.30
2023-01-22T00:44:43.338Z,24.47
2023-01-22T00:47:31.367Z,17.17
2023-01-22T00:50:19.634Z,17.07
2023-01-22T00:53:07.543Z,18.00
2023-01-22T00:55:56.605Z,17.17
2023-01-22T00:58:44.864Z,18.73
2023-01-22T01:01:32.284Z,16.00
2023-01-22T01:04:20.189Z,18.23
2023-01-22T01:07:08.023Z,17.70
2023-01-22T01:09:56.013Z,16.53
2023-01-22T01:12:43.396Z,18.07
2023-01-22T01:15:31.323Z,14.77
2023-01-22T01:18:18.861Z,20.63
2023-01-22T01:21:07.949Z,18.33
2023-01-22T01:23:59.529Z,17.07
2023-01-22T01:26:46.957Z,20.17
2023-01-22T01:29:34.862Z,17.67
2023-01-22T01:32:22.329Z,18.13
2023-01-22T01:35:09.928Z,21.43
2023-01-22T01:37:57.895Z,17.87
2023-01-22T01:40:45.360Z,17.50
2023-01-22T01:43:33.325Z,17.17
2023-01-22T01:46:22.864Z,17.40
2023-01-22T01:49:16.722Z,23.13
2023-01-22T01:52:07.390Z,24.70
2023-01-22T01:54:57.579Z,19.70
2023-01-22T01:57:45.778Z,19.97
2023-01-22T02:00:36.073Z,18.67
2023-01-22T02:03:24.034Z,15.57
2023-01-22T02:06:12.482Z,18.23
2023-01-22T02:09:00.994Z,22.23
2023-01-22T02:11:49.337Z,17.40
2023-01-22T02:14:40.294Z,20.83
2023-01-22T02:17:27.930Z,16.80
2023-01-22T02:20:16.727Z,24.50
2023-01-22T02:23:05.168Z,18.17
2023-01-22T02:25:53.051Z,21.17
2023-01-22T02:28:40.949Z,18.23
2023-01-22T02:31:28.468Z,20.13
2023-01-22T02:34:16.407Z,16.90
2023-01-22T02:37:04.157Z,21.10
2023-01-22T02:39:53.162Z,24.10
2023-01-22T02:42:40.651Z,20.77
2023-01-22T02:45:28.646Z,20.17
2023-01-22T02:48:16.128Z,21.97
2023-01-22T02:51:04.397Z,22.93
2023-01-22T02:53:52.273Z,21.70
2023-01-22T02:56:40.250Z,21.93
2023-01-22T02:59:27.800Z,18.57
2023-01-22T03:02:15.844Z,21.10
2023-01-22T03:05:03.944Z,20.97
2023-01-22T03:07:51.883Z,23.70
2023-01-22T03:10:39.487Z,21.83
2023-01-22T03:13:45.888Z,20.97
2023-01-22T03:16:52.573Z,22.27
2023-01-22T03:19:58.807Z,21.47
2023-01-22T03:22:46.247Z,21.77
2023-01-22T03:25:34.171Z,22.47
2023-01-22T03:28:21.634Z,26.97
2023-01-22T03:31:09.667Z,27.77
2023-01-22T03:33:57.099Z,18.00
2023-01-22T03:36:45.343Z,19.57
2023-01-22T03:39:33.054Z,20.30
2023-01-22T03:42:21.077Z,20.77
2023-01-22T03:45:10.000Z,22.40
2023-01-22T03:47:57.932Z,20.53
2023-01-22T03:50:45.355Z,20.00
2023-01-22T03:53:33.448Z,20.47
2023-01-22T03:56:22.075Z,21.73
2023-01-22T03:59:10.282Z,21.43
2023-01-22T04:01:57.692Z,19.37
2023-01-22T04:04:45.645Z,24.80
2023-01-22T04:07:33.064Z,20.87
2023-01-22T04:10:21.371Z,20.53
2023-01-22T04:13:08.940Z,22.67
2023-01-22T04:15:56.866Z,25.30
2023-01-22T04:18:44.817Z,24.83
2023-01-22T04:21:32.225Z,24.67
2023-01-22T04:24:20.148Z,23.13
2023-01-22T04:27:07.562Z,21.50
2023-01-22T04:29:55.479Z,21.07
2023-01-22T04:32:42.893Z,27.67
2023-01-22T04:35:30.969Z,20.87
2023-01-22T04:38:18.489Z,22.53
2023-01-22T04:41:06.467Z,25.50
2023-01-22T04:43:53.884Z,22.37
2023-01-22T04:46:41.801Z,17.97
2023-01-22T04:49:29.725Z,22.47
2023-01-22T04:52:17.348Z,25.50
2023-01-22T04:55:05.456Z,22.33
2023-01-22T04:57:57.824Z,21.27
2023-01-22T05:00:45.843Z,18.80
2023-01-22T05:03:33.247Z,21.50
2023-01-22T05:06:21.180Z,22.57
2023-01-22T05:09:08.651Z,24.23
2023-01-22T05:11:56.587Z,22.03
2023-01-22T05:14:44.009Z,20.60
2023-01-22T05:17:31.935Z,24.70
2023-01-22T05:20:19.625Z,22.57
2023-01-22T05:23:07.575Z,19.73
2023-01-22T05:25:54.993Z,18.40
2023-01-22T05:28:42.949Z,23.93
2023-01-22T05:31:31.070Z,20.30
2023-01-22T05:34:18.509Z,22.67
2023-01-22T05:37:06.424Z,21.00
2023-01-22T05:39:53.857Z,21.93
2023-01-22T05:42:41.785Z,24.67
2023-01-22T05:45:29.227Z,24.63
2023-01-22T05:48:17.142Z,20.67
2023-01-22T05:51:05.386Z,25.90
2023-01-22T05:53:53.328Z,21.20
2023-01-22T05:56:40.744Z,24.27
2023-01-22T05:59:28.654Z,22.07
2023-01-22T06:02:16.088Z,24.23
2023-01-22T06:05:04.066Z,23.60
2023-01-22T06:07:51.490Z,27.53
2023-01-22T06:10:39.029Z,20.50
2023-01-22T06:13:26.458Z,22.90
2023-01-22T06:16:14.438Z,22.47
2023-01-22T06:19:01.891Z,19.77
2023-01-22T06:21:50.028Z,23.10
2023-01-22T06:24:37.323Z,22.93
2023-01-22T06:27:25.234Z,22.97
2023-01-22T06:30:12.790Z,23.17
2023-01-22T06:33:00.727Z,23.37
2023-01-22T06:35:48.158Z,20.57
2023-01-22T06:38:37.349Z,25.00
2023-01-22T06:41:24.803Z,28.83
2023-01-22T06:44:12.693Z,25.87
2023-01-22T06:47:00.132Z,22.83
2023-01-22T06:49:48.071Z,22.90
2023-01-22T06:52:35.495Z,21.50
2023-01-22T06:55:22.929Z,19.97
2023-01-22T06:58:10.870Z,25.53
2023-01-22T07:01:02.299Z,19.20
2023-01-22T07:03:49.755Z,25.80
2023-01-22T07:06:37.629Z,22.23
2023-01-22T07:09:25.792Z,20.87
2023-01-22T07:12:13.217Z,18.57
2023-01-22T07:15:01.210Z,32.93
2023-01-22T07:17:52.797Z,25.43
2023-01-22T07:20:40.770Z,16.87
2023-01-22T07:23:28.670Z,19.60
2023-01-22T07:26:17.589Z,22.97
2023-01-22T07:29:05.412Z,20.80
2023-01-22T07:31:53.484Z,20.67
2023-01-22T07:34:40.805Z,19.63
2023-01-22T07:37:28.745Z,19.40
2023-01-22T07:40:17.328Z,26.07
2023-01-22T07:43:08.279Z,24.37
2023-01-22T07:45:57.854Z,23.57
2023-01-22T07:48:47.162Z,19.13
2023-01-22T07:51:34.926Z,19.20
2023-01-22T07:54:22.387Z,19.20
2023-01-22T07:57:15.281Z,21.13
2023-01-22T08:00:02.697Z,21.10
2023-01-22T08:02:50.293Z,22.97
2023-01-22T08:05:40.536Z,19.83
2023-01-22T08:08:27.811Z,21.97
2023-01-22T08:11:15.873Z,20.23
2023-01-22T08:14:03.377Z,25.80
2023-01-22T08:16:51.282Z,24.27
2023-01-22T08:19:39.335Z,21.73
2023-01-22T08:22:27.252Z,19.70
2023-01-22T08:25:14.677Z,24.50
2023-01-22T08:28:03.981Z,20.63
2023-01-22T08:30:51.932Z,25.63
2023-01-22T08:33:39.365Z,17.10
2023-01-22T08:36:27.564Z,21.50
2023-01-22T08:39:15.813Z,21.03
2023-01-22T08:42:03.604Z,20.43
2023-01-22T08:44:51.580Z,19.33
2023-01-22T08:47:39.023Z,17.27
2023-01-22T08:50:27.780Z,20.30
2023-01-22T08:53:15.220Z,21.70
2023-01-22T08:56:02.683Z,24.17
2023-01-22T08:58:51.089Z,18.47
2023-01-22T09:01:38.595Z,22.00
2023-01-22T09:04:26.734Z,19.10
2023-01-22T09:07:14.643Z,20.03
2023-01-22T09:10:02.564Z,18.83
2023-01-22T09:12:50.482Z,21.63
2023-01-22T09:15:38.329Z,18.30
2023-01-22T09:18:26.281Z,20.07
2023-01-22T09:21:13.758Z,20.10
2023-01-22T09:24:01.616Z,20.93
2023-01-22T09:26:49.156Z,22.63
2023-01-22T09:29:36.604Z,20.37
2023-01-22T09:32:24.022Z,20.10
2023-01-22T09:35:11.428Z,17.00
2023-01-22T09:37:58.868Z,17.53
2023-01-22T09:40:48.800Z,20.27
2023-01-22T09:43:51.734Z,20.53
2023-01-22T09:46:47.450Z,18.33
2023-01-22T09:49:37.666Z,19.43
2023-01-22T09:52:26.789Z,20.33
2023-01-22T09:55:15.345Z,22.57
2023-01-22T09:58:06.148Z,20.03
2023-01-22T10:00:55.055Z,14.57
2023-01-22T10:03:54.248Z,18.47
2023-01-22T10:06:43.443Z,18.03
2023-01-22T10:09:32.258Z,18.47
2023-01-22T10:12:19.755Z,16.33
2023-01-22T10:15:09.046Z,16.53
2023-01-22T10:17:56.994Z,20.17
2023-01-22T10:20:44.500Z,18.17
2023-01-22T10:23:32.601Z,16.13
2023-01-22T10:26:25.273Z,16.87
2023-01-22T10:29:32.958Z,17.20
2023-01-22T10:32:20.386Z,22.03
2023-01-22T10:35:22.082Z,18.13
2023-01-22T10:38:21.419Z,20.80
2023-01-22T10:41:17.990Z,19.33
2023-01-22T10:44:11.464Z,17.07
2023-01-22T10:47:08.880Z,15.53
2023-01-22T10:50:14.267Z,17.70
2023-01-22T10:53:04.131Z,16.40
2023-01-22T10:55:56.385Z,16.10
2023-01-22T10:58:48.019Z,14.50
2023-01-22T11:01:36.782Z,17.93
2023-01-22T11:04:29.522Z,19.73
2023-01-22T11:07:33.265Z,14.30
2023-01-22T11:10:21.633Z,14.00
2023-01-22T11:13:26.901Z,17.70
2023-01-22T11:16:19.580Z,19.07
2023-01-22T11:19:16.707Z,14.57
2023-01-22T11:22:06.085Z,15.93
2023-01-22T11:24:53.634Z,14.57
2023-01-22T11:27:44.654Z,13.43
2023-01-22T11:30:42.510Z,15.67
2023-01-22T11:33:37.787Z,14.20
2023-01-22T11:36:33.947Z,14.63
2023-01-22T11:39:30.233Z,15.97
2023-01-22T11:42:20.748Z,15.10
2023-01-22T11:45:26.915Z,14.63
2023-01-22T11:48:27.002Z,14.53
2023-01-22T11:51:26.728Z,14.87
2023-01-22T11:54:31.734Z,15.30
2023-01-22T11:57:28.364Z,16.50
2023-01-22T12:00:28.651Z,16.07
2023-01-22T12:03:22.144Z,14.60
2023-01-22T12:06:19.656Z,17.40
2023-01-22T12:09:09.907Z,14.90
2023-01-22T12:12:14.003Z,15.50
2023-01-22T12:15:15.365Z,13.93
2023-01-22T12:18:22.118Z,14.43
2023-01-22T12:21:28.181Z,15.73
2023-01-22T12:24:28.660Z,19.30
2023-01-22T12:27:23.428Z,16.53
2023-01-22T12:30:14.147Z,14.83
2023-01-22T12:33:05.083Z,14.17
2023-01-22T12:35:53.649Z,14.20
2023-01-22T12:38:44.112Z,11.67
2023-01-22T12:41:47.043Z,13.70
2023-01-22T12:44:43.183Z,16.20
2023-01-22T12:47:39.400Z,13.17
2023-01-22T12:50:27.488Z,9.93
2023-01-22T12:53:24.006Z,9.67
2023-01-22T12:56:11.962Z,9.30
2023-01-22T12:58:59.693Z,10.30
2023-01-22T13:01:47.698Z,12.57
2023-01-22T13:04:35.158Z,11.53
2023-01-22T13:07:31.484Z,14.90
2023-01-22T13:10:29.290Z,10.30
2023-01-22T13:13:23.044Z,12.37
2023-01-22T13:16:16.339Z,9.17
2023-01-22T13:19:30.575Z,10.57
2023-01-22T13:22:21.711Z,10.13
2023-01-22T13:25:23.477Z,10.47
2023-01-22T13:28:17.038Z,13.03
2023-01-22T13:31:05.959Z,8.57
2023-01-22T13:33:54.517Z,13.27
2023-01-22T13:36:46.114Z,10.60
2023-01-22T13:39:34.591Z,13.20
2023-01-22T13:42:22.073Z,11.73
2023-01-22T13:45:15.119Z,11.40
2023-01-22T13:48:06.509Z,13.80
2023-01-22T13:50:56.472Z,10.63
2023-01-22T13:53:46.078Z,10.67
2023-01-22T13:56:33.570Z,13.03
2023-01-22T13:59:25.253Z,13.67
2023-01-22T14:02:21.136Z,11.47
2023-01-22T14:05:18.136Z,10.97
2023-01-22T14:08:06.881Z,11.77
2023-01-22T14:10:58.287Z,13.57
2023-01-22T14:13:47.497Z,12.70
2023-01-22T14:16:41.812Z,11.30
2023-01-22T14:19:29.771Z,11.53
2023-01-22T14:22:17.271Z,8.77
2023-01-22T14:25:06.324Z,10.97
2023-01-22T14:27:54.931Z,10.00
2023-01-22T14:30:42.494Z,11.47
2023-01-22T14:33:31.467Z,12.90
2023-01-22T14:36:20.343Z,13.80
2023-01-22T14:39:07.796Z,13.83
2023-01-22T14:41:55.534Z,14.13
2023-01-22T14:44:42.941Z,12.27
2023-01-22T14:47:30.437Z,18.23
2023-01-22T14:50:18.949Z,11.60
2023-01-22T14:53:06.533Z,11.43
2023-01-22T14:55:54.730Z,10.67
2023-01-22T14:58:42.082Z,10.43
2023-01-22T15:01:29.532Z,15.80
2023-01-22T15:04:18.286Z,10.70
2023-01-22T15:07:05.734Z,11.73
2023-01-22T15:09:53.173Z,13.07
2023-01-22T15:12:40.704Z,14.20
2023-01-22T15:15:28.592Z,16.30
2023-01-22T15:18:16.180Z,12.30
2023-01-22T15:21:04.100Z,14.00
2023-01-22T15:23:51.692Z,11.27
2023-01-22T15:26:39.283Z,12.13
2023-01-22T15:29:26.727Z,10.57
2023-01-22T15:32:14.711Z,12.50
2023-01-22T15:35:02.164Z,13.23
2023-01-22T15:37:49.719Z,10.67
2023-01-22T15:40:37.901Z,10.50
2023-01-22T15:43:25.800Z,12.13
2023-01-22T15:46:13.234Z,11.60
2023-01-22T15:49:01.614Z,12.50
2023-01-22T15:51:49.086Z,11.60
2023-01-22T15:54:37.005Z,12.80
2023-01-22T15:57:24.938Z,14.03
2023-01-22T16:00:13.652Z,11.50
2023-01-22T16:03:01.129Z,18.17
2023-01-22T16:05:48.528Z,14.10
2023-01-22T16:08:35.980Z,14.63
2023-01-22T16:11:23.447Z,14.07
2023-01-22T16:14:11.435Z,15.20
2023-01-22T16:16:58.975Z,13.93
2023-01-22T16:19:46.512Z,15.07
2023-01-22T16:22:34.018Z,15.57
2023-01-22T16:25:21.433Z,13.87
2023-01-22T16:28:09.013Z,15.50
2023-01-22T16:30:56.605Z,17.57
2023-01-22T16:33:45.175Z,17.57
2023-01-22T16:36:33.442Z,18.90
2023-01-22T16:39:22.379Z,15.90
2023-01-22T16:42:09.786Z,14.33
2023-01-22T16:44:57.677Z,18.57
2023-01-22T16:47:45.101Z,15.80
2023-01-22T16:50:33.012Z,14.47
2023-01-22T16:53:20.486Z,15.50
2023-01-22T16:56:08.073Z,22.10
2023-01-22T16:58:55.584Z,16.83
2023-01-22T17:01:43.131Z,18.07
2023-01-22T17:04:30.581Z,16.07
2023-01-22T17:07:32.791Z,17.90
2023-01-22T17:10:21.723Z,21.13
2023-01-22T17:13:09.152Z,22.37
2023-01-22T17:15:57.071Z,17.00
2023-01-22T17:18:44.753Z,20.67
2023-01-22T17:21:32.396Z,20.17
2023-01-22T17:24:22.664Z,21.67
2023-01-22T17:27:12.084Z,22.13
2023-01-22T17:30:00.028Z,22.23
2023-01-22T17:32:49.453Z,20.37
2023-01-22T17:35:38.433Z,19.43
2023-01-22T17:38:28.070Z,19.87
2023-01-22T17:41:17.778Z,28.70
2023-01-22T17:44:05.792Z,25.23
2023-01-22T17:46:55.414Z,33.40
2023-01-22T17:49:43.332Z,19.43
2023-01-22T17:52:30.940Z,21.77
2023-01-22T17:55:19.090Z,21.93
2023-01-22T17:58:06.717Z,22.07
2023-01-22T18:00:54.634Z,17.67
2023-01-22T18:03:42.057Z,25.97
2023-01-22T18:06:30.343Z,25.20
2023-01-22T18:09:18.209Z,20.60
2023-01-22T18:12:06.250Z,22.17
2023-01-22T18:14:53.670Z,21.07
2023-01-22T18:17:41.648Z,20.07
2023-01-22T18:20:29.156Z,22.93
2023-01-22T18:23:17.480Z,26.37
2023-01-22T18:26:06.539Z,21.40
2023-01-22T18:28:55.312Z,22.50
2023-01-22T18:31:42.910Z,27.33
2023-01-22T18:34:30.311Z,22.13
2023-01-22T18:37:17.704Z,25.37
2023-01-22T18:40:05.435Z,25.20
2023-01-22T18:42:52.841Z,24.73
2023-01-22T18:45:41.989Z,23.20
2023-01-22T18:48:29.230Z,25.83
2023-01-22T18:51:16.695Z,26.77
2023-01-22T18:54:05.230Z,24.43
2023-01-22T18:56:52.728Z,24.37
2023-01-22T18:59:40.275Z,29.63
2023-01-22T19:02:28.300Z,28.37
2023-01-22T19:05:15.782Z,26.53
2023-01-22T19:08:03.217Z,27.00
2023-01-22T19:10:50.713Z,31.87
2023-01-22T19:13:39.544Z,28.50
2023-01-22T19:16:28.265Z,25.70
2023-01-22T19:19:16.984Z,25.97
2023-01-22T19:22:05.061Z,28.30
2023-01-22T19:24:52.371Z,25.73
2023-01-22T19:27:40.349Z,24.77
2023-01-22T19:30:27.808Z,29.63
2023-01-22T19:33:15.391Z,30.50
2023-01-22T19:36:03.770Z,31.77
2023-01-22T19:38:51.148Z,29.60
2023-01-22T19:41:39.729Z,28.07
2023-01-22T19:44:27.128Z,30.20
2023-01-22T19:47:15.352Z,27.60
2023-01-22T19:50:02.755Z,29.80
2023-01-22T19:52:50.627Z,31.20
2023-01-22T19:55:38.966Z,35.47
2023-01-22T19:58:28.021Z,32.30
2023-01-22T20:01:16.297Z,35.80
2023-01-22T20:04:05.645Z,33.90
2023-01-22T20:07:04.968Z,27.53
2023-01-22T20:09:55.158Z,30.27
2023-01-22T20:12:43.332Z,31.60
2023-01-22T20:15:31.249Z,27.70
2023-01-22T20:18:18.868Z,28.07
2023-01-22T20:21:06.580Z,29.00
2023-01-22T20:23:54.069Z,34.40
2023-01-22T20:26:41.975Z,33.00
2023-01-22T20:29:29.690Z,32.23
2023-01-22T20:32:17.602Z,30.87
2023-01-22T20:35:05.190Z,29.87
2023-01-22T20:37:52.678Z,30.33
2023-01-22T20:40:42.052Z,33.00
2023-01-22T20:43:29.453Z,34.00
2023-01-22T20:46:21.624Z,35.33
2023-01-22T20:49:09.179Z,35.90
2023-01-22T20:51:56.679Z,36.67
2023-01-22T20:55:00.575Z,34.17
2023-01-22T20:57:49.520Z,35.03
2023-01-22T21:00:37.445Z,39.30
2023-01-22T21:03:25.359Z,34.00
2023-01-22T21:06:14.543Z,33.83
2023-01-22T21:09:02.086Z,37.77
2023-01-22T21:11:49.861Z,30.17
2023-01-22T21:14:37.276Z,37.90
2023-01-22T21:17:25.197Z,32.10
2023-01-22T21:20:12.859Z,31.57
2023-01-22T21:23:00.447Z,34.40
2023-01-22T21:25:47.733Z,33.07
2023-01-22T21:28:35.827Z,29.80
2023-01-22T21:31:24.124Z,30.87
2023-01-22T21:34:12.356Z,29.60
2023-01-22T21:36:59.950Z,32.83
2023-01-22T21:39:47.918Z,32.90
2023-01-22T21:42:53.895Z,34.27
2023-01-22T21:46:01.980Z,31.10
2023-01-22T21:48:49.848Z,38.03
2023-01-22T21:51:37.782Z,29.67
2023-01-22T21:54:25.208Z,34.20
2023-01-22T21:57:14.368Z,29.07
2023-01-22T22:00:02.044Z,32.77
2023-01-22T22:02:50.083Z,30.17
2023-01-22T22:05:39.966Z,27.80
2023-01-22T22:08:27.875Z,32.07
2023-01-22T22:11:15.259Z,27.73
2023-01-22T22:14:03.257Z,28.77
2023-01-22T22:16:50.962Z,31.40
2023-01-22T22:19:38.991Z,27.50
2023-01-22T22:22:26.406Z,31.83
2023-01-22T22:25:14.355Z,35.80
2023-01-22T22:28:01.787Z,38.40
2023-01-22T22:30:49.722Z,39.57
2023-01-22T22:33:37.646Z,40.00
2023-01-22T22:36:26.651Z,33.47
2023-01-22T22:39:14.577Z,33.77
2023-01-22T22:42:02.514Z,28.07
2023-01-22T22:44:49.930Z,36.40
2023-01-22T22:47:37.961Z,30.67
2023-01-22T22:50:25.376Z,27.87
2023-01-22T22:53:12.925Z,34.97
2023-01-22T22:56:00.359Z,33.07
2023-01-22T22:58:48.325Z,34.93
2023-01-22T23:01:37.741Z,35.60
2023-01-22T23:04:25.615Z,35.97
2023-01-22T23:07:13.073Z,33.93
2023-01-22T23:10:00.540Z,36.03
2023-01-22T23:12:47.954Z,38.23
2023-01-22T23:15:35.907Z,30.97
2023-01-22T23:18:23.416Z,31.57
2023-01-22T23:21:11.977Z,34.67
2023-01-22T23:23:59.982Z,33.47
2023-01-22T23:26:47.848Z,31.90
2023-01-22T23:29:35.756Z,28.97
2023-01-22T23:32:26.362Z,29.13
2023-01-22T23:35:14.320Z,29.60
2023-01-22T23:38:02.822Z,32.33
2023-01-22T23:40:57.197Z,33.50
2023-01-22T23:43:45.185Z,33.87
2023-01-22T23:46:35.115Z,33.93
2023-01-22T23:49:23.074Z,26.87
2023-01-22T23:52:10.476Z,35.40
2023-01-22T23:54:58.530Z,31.63
2023-01-22T23:57:45.970Z,29.63
